sensor_id;sensor_type;location;lat;lon;timestamp;temperature;humidity
13928;DHT22;7036;50.834;4.718;2023-03-03T00:00:37;17.70;40.90
13928;DHT22;7036;50.834;4.718;2023-03-03T00:03:05;17.70;40.90
13928;DHT22;7036;50.834;4.718;2023-03-03T00:05:33;17.70;40.80
13928;DHT22;7036;50.834;4.718;2023-03-03T00:08:01;17.70;40.90
13928;DHT22;7036;50.834;4.718;2023-03-03T00:10:29;17.70;40.90
13928;DHT22;7036;50.834;4.718;2023-03-03T00:12:57;17.70;41.70
13928;DHT22;7036;50.834;4.718;2023-03-03T00:15:24;17.70;40.80
13928;DHT22;7036;50.834;4.718;2023-03-03T00:17:52;17.70;41.30
13928;DHT22;7036;50.834;4.718;2023-03-03T00:20:31;17.70;41.00
13928;DHT22;7036;50.834;4.718;2023-03-03T00:22:57;17.70;40.80
13928;DHT22;7036;50.834;4.718;2023-03-03T00:25:34;17.60;40.80
13928;DHT22;7036;50.834;4.718;2023-03-03T00:30:32;17.60;40.80
13928;DHT22;7036;50.834;4.718;2023-03-03T00:33:00;17.60;41.00
13928;DHT22;7036;50.834;4.718;2023-03-03T00:35:31;17.60;41.00
13928;DHT22;7036;50.834;4.718;2023-03-03T00:38:01;17.60;40.90
13928;DHT22;7036;50.834;4.718;2023-03-03T00:40:37;17.60;40.90
13928;DHT22;7036;50.834;4.718;2023-03-03T00:43:19;17.60;40.90
13928;DHT22;7036;50.834;4.718;2023-03-03T00:45:46;17.60;40.90
13928;DHT22;7036;50.834;4.718;2023-03-03T00:48:19;17.50;41.00
13928;DHT22;7036;50.834;4.718;2023-03-03T00:50:43;17.50;40.90
13928;DHT22;7036;50.834;4.718;2023-03-03T00:53:12;17.50;41.00
13928;DHT22;7036;50.834;4.718;2023-03-03T00:55:38;17.50;40.90
13928;DHT22;7036;50.834;4.718;2023-03-03T00:58:05;17.50;40.30
13928;DHT22;7036;50.834;4.718;2023-03-03T01:00:33;17.50;41.00
13928;DHT22;7036;50.834;4.718;2023-03-03T01:03:02;17.50;41.00
13928;DHT22;7036;50.834;4.718;2023-03-03T01:05:29;17.40;41.00
13928;DHT22;7036;50.834;4.718;2023-03-03T01:07:56;17.40;40.90
13928;DHT22;7036;50.834;4.718;2023-03-03T01:10:25;17.50;41.10
13928;DHT22;7036;50.834;4.718;2023-03-03T01:12:52;17.40;41.00
13928;DHT22;7036;50.834;4.718;2023-03-03T01:15:19;17.40;40.90
13928;DHT22;7036;50.834;4.718;2023-03-03T01:17:47;17.40;41.00
13928;DHT22;7036;50.834;4.718;2023-03-03T01:20:15;17.40;40.90
13928;DHT22;7036;50.834;4.718;2023-03-03T01:22:42;17.40;41.00
13928;DHT22;7036;50.834;4.718;2023-03-03T01:25:10;17.40;41.10
13928;DHT22;7036;50.834;4.718;2023-03-03T01:27:38;17.30;41.00
13928;DHT22;7036;50.834;4.718;2023-03-03T01:30:06;17.40;41.10
13928;DHT22;7036;50.834;4.718;2023-03-03T01:32:33;17.30;41.00
13928;DHT22;7036;50.834;4.718;2023-03-03T01:35:00;17.30;41.00
13928;DHT22;7036;50.834;4.718;2023-03-03T01:37:28;17.30;41.00
13928;DHT22;7036;50.834;4.718;2023-03-03T01:39:55;17.30;40.90
13928;DHT22;7036;50.834;4.718;2023-03-03T01:42:22;17.30;41.00
13928;DHT22;7036;50.834;4.718;2023-03-03T01:45:06;17.30;41.00
13928;DHT22;7036;50.834;4.718;2023-03-03T01:47:21;17.30;41.10
13928;DHT22;7036;50.834;4.718;2023-03-03T01:50:02;17.30;40.90
13928;DHT22;7036;50.834;4.718;2023-03-03T01:52:35;17.30;40.90
13928;DHT22;7036;50.834;4.718;2023-03-03T01:55:03;17.30;41.00
13928;DHT22;7036;50.834;4.718;2023-03-03T01:57:31;17.30;41.00
13928;DHT22;7036;50.834;4.718;2023-03-03T01:59:56;17.30;41.00
13928;DHT22;7036;50.834;4.718;2023-03-03T02:02:23;17.20;41.00
13928;DHT22;7036;50.834;4.718;2023-03-03T02:04:50;17.20;41.00
13928;DHT22;7036;50.834;4.718;2023-03-03T02:07:17;17.20;41.00
13928;DHT22;7036;50.834;4.718;2023-03-03T02:12:22;17.20;41.00
13928;DHT22;7036;50.834;4.718;2023-03-03T02:14:48;17.10;41.00
13928;DHT22;7036;50.834;4.718;2023-03-03T02:17:15;17.20;40.40
13928;DHT22;7036;50.834;4.718;2023-03-03T02:25:07;17.20;41.00
13928;DHT22;7036;50.834;4.718;2023-03-03T02:27:33;17.20;41.00
13928;DHT22;7036;50.834;4.718;2023-03-03T02:30:22;17.10;41.00
13928;DHT22;7036;50.834;4.718;2023-03-03T02:32:46;17.10;40.40
13928;DHT22;7036;50.834;4.718;2023-03-03T02:35:26;17.10;41.00
13928;DHT22;7036;50.834;4.718;2023-03-03T02:37:51;17.10;41.00
13928;DHT22;7036;50.834;4.718;2023-03-03T02:40:18;17.10;41.00
13928;DHT22;7036;50.834;4.718;2023-03-03T02:42:45;17.10;41.00
13928;DHT22;7036;50.834;4.718;2023-03-03T02:45:13;17.10;41.00
13928;DHT22;7036;50.834;4.718;2023-03-03T02:47:40;17.10;41.00
13928;DHT22;7036;50.834;4.718;2023-03-03T02:50:08;17.10;41.00
13928;DHT22;7036;50.834;4.718;2023-03-03T02:52:35;17.10;41.00
13928;DHT22;7036;50.834;4.718;2023-03-03T02:55:02;17.00;40.90
13928;DHT22;7036;50.834;4.718;2023-03-03T02:57:29;17.00;41.00
13928;DHT22;7036;50.834;4.718;2023-03-03T02:59:56;17.00;40.90
13928;DHT22;7036;50.834;4.718;2023-03-03T03:02:23;17.00;41.00
13928;DHT22;7036;50.834;4.718;2023-03-03T03:04:51;17.00;41.00
13928;DHT22;7036;50.834;4.718;2023-03-03T03:07:18;17.00;41.00
13928;DHT22;7036;50.834;4.718;2023-03-03T03:09:46;17.00;41.10
13928;DHT22;7036;50.834;4.718;2023-03-03T03:12:14;17.00;41.10
13928;DHT22;7036;50.834;4.718;2023-03-03T03:14:41;17.00;41.00
13928;DHT22;7036;50.834;4.718;2023-03-03T03:17:08;17.00;41.00
13928;DHT22;7036;50.834;4.718;2023-03-03T03:19:35;17.00;41.00
13928;DHT22;7036;50.834;4.718;2023-03-03T03:22:03;17.00;41.00
13928;DHT22;7036;50.834;4.718;2023-03-03T03:24:30;17.00;41.10
13928;DHT22;7036;50.834;4.718;2023-03-03T03:26:57;17.00;41.10
13928;DHT22;7036;50.834;4.718;2023-03-03T03:29:24;17.00;41.10
13928;DHT22;7036;50.834;4.718;2023-03-03T03:31:51;17.00;41.10
13928;DHT22;7036;50.834;4.718;2023-03-03T03:34:19;17.00;41.10
13928;DHT22;7036;50.834;4.718;2023-03-03T03:36:46;17.00;41.10
13928;DHT22;7036;50.834;4.718;2023-03-03T03:39:13;17.00;41.00
13928;DHT22;7036;50.834;4.718;2023-03-03T03:41:40;17.00;41.00
13928;DHT22;7036;50.834;4.718;2023-03-03T03:44:07;17.00;41.00
13928;DHT22;7036;50.834;4.718;2023-03-03T03:46:35;17.00;41.00
13928;DHT22;7036;50.834;4.718;2023-03-03T03:49:02;17.10;41.00
13928;DHT22;7036;50.834;4.718;2023-03-03T03:51:29;17.10;41.00
13928;DHT22;7036;50.834;4.718;2023-03-03T03:53:56;17.10;41.00
13928;DHT22;7036;50.834;4.718;2023-03-03T03:56:23;17.10;41.00
13928;DHT22;7036;50.834;4.718;2023-03-03T03:58:51;17.10;41.00
13928;DHT22;7036;50.834;4.718;2023-03-03T04:01:18;17.10;41.00
13928;DHT22;7036;50.834;4.718;2023-03-03T04:03:45;17.20;41.00
13928;DHT22;7036;50.834;4.718;2023-03-03T04:06:12;17.10;40.90
13928;DHT22;7036;50.834;4.718;2023-03-03T04:08:39;17.10;40.90
13928;DHT22;7036;50.834;4.718;2023-03-03T04:11:07;17.20;41.00
13928;DHT22;7036;50.834;4.718;2023-03-03T04:13:34;17.20;40.90
13928;DHT22;7036;50.834;4.718;2023-03-03T04:16:01;17.20;40.90
13928;DHT22;7036;50.834;4.718;2023-03-03T04:18:28;17.20;41.00
13928;DHT22;7036;50.834;4.718;2023-03-03T04:20:55;17.20;40.90
13928;DHT22;7036;50.834;4.718;2023-03-03T04:23:22;17.20;40.90
13928;DHT22;7036;50.834;4.718;2023-03-03T04:25:50;17.20;41.00
13928;DHT22;7036;50.834;4.718;2023-03-03T04:28:17;17.10;40.90
13928;DHT22;7036;50.834;4.718;2023-03-03T04:30:44;17.10;40.90
13928;DHT22;7036;50.834;4.718;2023-03-03T04:33:12;17.10;40.90
13928;DHT22;7036;50.834;4.718;2023-03-03T04:35:39;17.20;41.00
13928;DHT22;7036;50.834;4.718;2023-03-03T04:38:06;17.10;40.90
13928;DHT22;7036;50.834;4.718;2023-03-03T04:40:33;17.10;40.90
13928;DHT22;7036;50.834;4.718;2023-03-03T04:43:00;17.10;40.90
13928;DHT22;7036;50.834;4.718;2023-03-03T04:45:28;17.10;40.90
13928;DHT22;7036;50.834;4.718;2023-03-03T04:47:55;17.10;40.90
13928;DHT22;7036;50.834;4.718;2023-03-03T04:50:22;17.10;40.90
13928;DHT22;7036;50.834;4.718;2023-03-03T04:52:49;17.10;40.90
13928;DHT22;7036;50.834;4.718;2023-03-03T04:55:17;17.10;40.90
13928;DHT22;7036;50.834;4.718;2023-03-03T04:57:44;17.10;40.90
13928;DHT22;7036;50.834;4.718;2023-03-03T05:00:12;17.10;40.90
13928;DHT22;7036;50.834;4.718;2023-03-03T05:02:41;17.10;41.00
13928;DHT22;7036;50.834;4.718;2023-03-03T05:05:08;17.10;40.90
13928;DHT22;7036;50.834;4.718;2023-03-03T05:07:35;17.10;40.90
13928;DHT22;7036;50.834;4.718;2023-03-03T05:10:03;17.10;40.90
13928;DHT22;7036;50.834;4.718;2023-03-03T05:12:30;17.10;40.90
13928;DHT22;7036;50.834;4.718;2023-03-03T05:14:57;17.10;40.90
13928;DHT22;7036;50.834;4.718;2023-03-03T05:17:24;17.10;40.90
13928;DHT22;7036;50.834;4.718;2023-03-03T05:19:52;17.10;40.90
13928;DHT22;7036;50.834;4.718;2023-03-03T05:22:19;17.10;40.90
13928;DHT22;7036;50.834;4.718;2023-03-03T05:24:46;17.10;40.80
13928;DHT22;7036;50.834;4.718;2023-03-03T05:27:14;17.10;40.90
13928;DHT22;7036;50.834;4.718;2023-03-03T05:29:41;17.10;40.90
13928;DHT22;7036;50.834;4.718;2023-03-03T05:32:09;17.10;40.90
13928;DHT22;7036;50.834;4.718;2023-03-03T05:34:36;17.10;40.90
13928;DHT22;7036;50.834;4.718;2023-03-03T05:37:03;17.10;40.90
13928;DHT22;7036;50.834;4.718;2023-03-03T05:39:30;17.10;40.90
13928;DHT22;7036;50.834;4.718;2023-03-03T05:41:57;17.10;40.90
13928;DHT22;7036;50.834;4.718;2023-03-03T05:44:25;17.10;40.90
13928;DHT22;7036;50.834;4.718;2023-03-03T05:46:52;17.10;40.90
13928;DHT22;7036;50.834;4.718;2023-03-03T05:49:19;17.10;40.90
13928;DHT22;7036;50.834;4.718;2023-03-03T05:51:46;17.10;40.90
13928;DHT22;7036;50.834;4.718;2023-03-03T05:54:14;17.10;40.90
13928;DHT22;7036;50.834;4.718;2023-03-03T05:56:41;17.10;40.90
13928;DHT22;7036;50.834;4.718;2023-03-03T05:59:08;17.10;40.80
13928;DHT22;7036;50.834;4.718;2023-03-03T06:01:35;17.10;40.90
13928;DHT22;7036;50.834;4.718;2023-03-03T06:04:03;17.10;40.90
13928;DHT22;7036;50.834;4.718;2023-03-03T06:06:30;17.10;40.90
13928;DHT22;7036;50.834;4.718;2023-03-03T06:08:57;17.10;40.90
13928;DHT22;7036;50.834;4.718;2023-03-03T06:11:24;17.10;40.90
13928;DHT22;7036;50.834;4.718;2023-03-03T06:13:52;17.20;40.80
13928;DHT22;7036;50.834;4.718;2023-03-03T06:16:19;17.20;40.70
13928;DHT22;7036;50.834;4.718;2023-03-03T06:18:46;17.30;40.70
13928;DHT22;7036;50.834;4.718;2023-03-03T06:21:13;17.40;40.70
13928;DHT22;7036;50.834;4.718;2023-03-03T06:23:41;17.50;40.70
13928;DHT22;7036;50.834;4.718;2023-03-03T06:26:08;17.50;40.50
13928;DHT22;7036;50.834;4.718;2023-03-03T06:28:35;17.60;40.50
13928;DHT22;7036;50.834;4.718;2023-03-03T06:31:02;17.70;40.50
13928;DHT22;7036;50.834;4.718;2023-03-03T06:33:30;17.70;40.40
13928;DHT22;7036;50.834;4.718;2023-03-03T06:35:57;17.80;40.30
13928;DHT22;7036;50.834;4.718;2023-03-03T06:38:24;17.80;40.30
13928;DHT22;7036;50.834;4.718;2023-03-03T06:40:51;17.80;40.20
13928;DHT22;7036;50.834;4.718;2023-03-03T06:43:19;17.70;40.10
13928;DHT22;7036;50.834;4.718;2023-03-03T06:45:46;17.70;39.70
13928;DHT22;7036;50.834;4.718;2023-03-03T06:48:14;17.70;40.00
13928;DHT22;7036;50.834;4.718;2023-03-03T06:50:43;17.70;40.00
13928;DHT22;7036;50.834;4.718;2023-03-03T06:53:13;17.80;40.10
13928;DHT22;7036;50.834;4.718;2023-03-03T06:55:41;17.80;40.10
13928;DHT22;7036;50.834;4.718;2023-03-03T06:58:13;17.80;39.80
13928;DHT22;7036;50.834;4.718;2023-03-03T07:00:39;17.80;39.80
13928;DHT22;7036;50.834;4.718;2023-03-03T07:03:16;17.80;39.70
13928;DHT22;7036;50.834;4.718;2023-03-03T07:05:41;17.70;39.70
13928;DHT22;7036;50.834;4.718;2023-03-03T07:08:15;17.80;40.00
13928;DHT22;7036;50.834;4.718;2023-03-03T07:10:41;17.80;39.90
13928;DHT22;7036;50.834;4.718;2023-03-03T07:13:32;17.90;40.00
13928;DHT22;7036;50.834;4.718;2023-03-03T07:15:38;17.90;40.00
13928;DHT22;7036;50.834;4.718;2023-03-03T07:18:07;18.00;40.00
13928;DHT22;7036;50.834;4.718;2023-03-03T07:20:35;18.00;40.00
13928;DHT22;7036;50.834;4.718;2023-03-03T07:23:10;18.00;40.00
13928;DHT22;7036;50.834;4.718;2023-03-03T07:25:33;18.10;40.10
13928;DHT22;7036;50.834;4.718;2023-03-03T07:30:41;18.20;39.90
13928;DHT22;7036;50.834;4.718;2023-03-03T07:33:15;18.20;39.80
13928;DHT22;7036;50.834;4.718;2023-03-03T07:35:37;18.20;39.70
13928;DHT22;7036;50.834;4.718;2023-03-03T07:40:40;18.20;39.70
13928;DHT22;7036;50.834;4.718;2023-03-03T07:46:16;18.30;39.70
13928;DHT22;7036;50.834;4.718;2023-03-03T07:48:41;18.40;40.10
13928;DHT22;7036;50.834;4.718;2023-03-03T07:51:21;18.40;40.10
13928;DHT22;7036;50.834;4.718;2023-03-03T07:53:47;18.40;40.10
13928;DHT22;7036;50.834;4.718;2023-03-03T07:56:15;18.50;40.20
13928;DHT22;7036;50.834;4.718;2023-03-03T07:58:41;18.50;40.20
13928;DHT22;7036;50.834;4.718;2023-03-03T08:04:23;18.50;40.30
13928;DHT22;7036;50.834;4.718;2023-03-03T08:06:53;18.50;40.20
13928;DHT22;7036;50.834;4.718;2023-03-03T08:11:50;18.60;39.90
13928;DHT22;7036;50.834;4.718;2023-03-03T08:14:15;18.60;39.80
13928;DHT22;7036;50.834;4.718;2023-03-03T08:16:42;18.60;39.80
13928;DHT22;7036;50.834;4.718;2023-03-03T08:19:09;18.70;39.80
13928;DHT22;7036;50.834;4.718;2023-03-03T08:21:37;18.60;39.70
13928;DHT22;7036;50.834;4.718;2023-03-03T08:24:04;18.70;39.70
13928;DHT22;7036;50.834;4.718;2023-03-03T08:26:31;18.70;39.70
13928;DHT22;7036;50.834;4.718;2023-03-03T08:28:58;18.70;39.60
13928;DHT22;7036;50.834;4.718;2023-03-03T08:31:26;18.70;39.60
13928;DHT22;7036;50.834;4.718;2023-03-03T08:33:53;18.70;39.50
13928;DHT22;7036;50.834;4.718;2023-03-03T08:36:20;18.80;39.60
13928;DHT22;7036;50.834;4.718;2023-03-03T08:38:47;18.80;39.60
13928;DHT22;7036;50.834;4.718;2023-03-03T08:41:14;18.70;39.60
13928;DHT22;7036;50.834;4.718;2023-03-03T08:43:42;18.70;39.60
13928;DHT22;7036;50.834;4.718;2023-03-03T08:46:09;18.70;39.60
13928;DHT22;7036;50.834;4.718;2023-03-03T08:48:36;18.70;39.60
13928;DHT22;7036;50.834;4.718;2023-03-03T08:51:04;18.70;39.50
13928;DHT22;7036;50.834;4.718;2023-03-03T08:53:31;18.70;39.50
13928;DHT22;7036;50.834;4.718;2023-03-03T08:55:58;18.70;39.50
13928;DHT22;7036;50.834;4.718;2023-03-03T08:58:25;18.80;39.50
13928;DHT22;7036;50.834;4.718;2023-03-03T09:00:53;18.80;39.40
13928;DHT22;7036;50.834;4.718;2023-03-03T09:03:20;18.80;39.40
13928;DHT22;7036;50.834;4.718;2023-03-03T09:05:47;18.80;39.30
13928;DHT22;7036;50.834;4.718;2023-03-03T09:08:14;18.80;39.30
13928;DHT22;7036;50.834;4.718;2023-03-03T09:10:41;18.80;39.30
13928;DHT22;7036;50.834;4.718;2023-03-03T09:13:16;18.90;39.90
13928;DHT22;7036;50.834;4.718;2023-03-03T09:15:42;18.90;39.30
13928;DHT22;7036;50.834;4.718;2023-03-03T09:21:00;18.90;39.20
13928;DHT22;7036;50.834;4.718;2023-03-03T09:24:17;18.90;39.20
13928;DHT22;7036;50.834;4.718;2023-03-03T09:26:22;18.90;39.10
13928;DHT22;7036;50.834;4.718;2023-03-03T09:28:48;18.90;39.10
13928;DHT22;7036;50.834;4.718;2023-03-03T09:31:24;18.90;39.10
13928;DHT22;7036;50.834;4.718;2023-03-03T09:33:48;18.90;39.10
13928;DHT22;7036;50.834;4.718;2023-03-03T09:36:27;18.90;39.10
13928;DHT22;7036;50.834;4.718;2023-03-03T09:38:54;19.00;39.20
13928;DHT22;7036;50.834;4.718;2023-03-03T09:49:33;19.00;39.50
13928;DHT22;7036;50.834;4.718;2023-03-03T09:57:58;19.10;39.40
13928;DHT22;7036;50.834;4.718;2023-03-03T10:03:27;19.10;39.30
13928;DHT22;7036;50.834;4.718;2023-03-03T10:11:45;19.10;39.20
13928;DHT22;7036;50.834;4.718;2023-03-03T10:17:24;19.20;39.50
13928;DHT22;7036;50.834;4.718;2023-03-03T10:19:56;19.20;39.30
13928;DHT22;7036;50.834;4.718;2023-03-03T10:22:32;19.20;39.50
13928;DHT22;7036;50.834;4.718;2023-03-03T10:25:48;19.20;39.70
13928;DHT22;7036;50.834;4.718;2023-03-03T10:27:49;19.20;39.60
13928;DHT22;7036;50.834;4.718;2023-03-03T10:30:20;19.20;39.70
13928;DHT22;7036;50.834;4.718;2023-03-03T10:41:15;19.30;39.60
13928;DHT22;7036;50.834;4.718;2023-03-03T10:46:29;19.30;39.60
13928;DHT22;7036;50.834;4.718;2023-03-03T11:05:41;19.30;39.70
13928;DHT22;7036;50.834;4.718;2023-03-03T11:08:14;19.30;39.60
13928;DHT22;7036;50.834;4.718;2023-03-03T11:10:49;19.30;39.60
13928;DHT22;7036;50.834;4.718;2023-03-03T11:19:04;19.30;39.60
13928;DHT22;7036;50.834;4.718;2023-03-03T11:21:40;19.30;39.60
13928;DHT22;7036;50.834;4.718;2023-03-03T11:24:14;19.30;39.50
13928;DHT22;7036;50.834;4.718;2023-03-03T11:29:33;19.30;39.40
13928;DHT22;7036;50.834;4.718;2023-03-03T11:34:51;19.40;39.50
13928;DHT22;7036;50.834;4.718;2023-03-03T11:40:16;19.40;39.50
13928;DHT22;7036;50.834;4.718;2023-03-03T11:42:46;19.40;39.40
13928;DHT22;7036;50.834;4.718;2023-03-03T11:45:18;19.40;39.40
13928;DHT22;7036;50.834;4.718;2023-03-03T11:50:25;19.40;39.40
13928;DHT22;7036;50.834;4.718;2023-03-03T11:53:00;19.40;39.50
13928;DHT22;7036;50.834;4.718;2023-03-03T11:55:37;19.40;39.40
13928;DHT22;7036;50.834;4.718;2023-03-03T12:00:36;19.50;39.30
13928;DHT22;7036;50.834;4.718;2023-03-03T12:03:28;19.50;39.30
13928;DHT22;7036;50.834;4.718;2023-03-03T12:08:53;19.50;39.40
13928;DHT22;7036;50.834;4.718;2023-03-03T12:11:19;19.50;39.50
13928;DHT22;7036;50.834;4.718;2023-03-03T12:13:47;19.50;39.40
13928;DHT22;7036;50.834;4.718;2023-03-03T12:16:11;19.50;39.50
13928;DHT22;7036;50.834;4.718;2023-03-03T12:18:59;19.50;39.50
13928;DHT22;7036;50.834;4.718;2023-03-03T12:21:51;19.50;39.40
13928;DHT22;7036;50.834;4.718;2023-03-03T12:24:36;19.50;39.40
13928;DHT22;7036;50.834;4.718;2023-03-03T12:29:43;19.60;39.40
13928;DHT22;7036;50.834;4.718;2023-03-03T12:32:31;19.60;39.30
13928;DHT22;7036;50.834;4.718;2023-03-03T12:35:19;19.60;39.20
13928;DHT22;7036;50.834;4.718;2023-03-03T12:40:16;19.60;39.00
13928;DHT22;7036;50.834;4.718;2023-03-03T12:45:42;19.70;39.30
13928;DHT22;7036;50.834;4.718;2023-03-03T12:56:54;19.70;39.10
13928;DHT22;7036;50.834;4.718;2023-03-03T12:59:41;19.80;39.10
13928;DHT22;7036;50.834;4.718;2023-03-03T13:04:56;19.80;39.50
13928;DHT22;7036;50.834;4.718;2023-03-03T13:07:25;19.80;39.50
13928;DHT22;7036;50.834;4.718;2023-03-03T13:12:49;19.80;39.60
13928;DHT22;7036;50.834;4.718;2023-03-03T13:15:30;19.80;39.80
13928;DHT22;7036;50.834;4.718;2023-03-03T13:25:55;19.80;39.60
13928;DHT22;7036;50.834;4.718;2023-03-03T13:28:32;19.80;39.70
13928;DHT22;7036;50.834;4.718;2023-03-03T13:30:57;19.80;39.70
13928;DHT22;7036;50.834;4.718;2023-03-03T13:33:27;19.80;39.60
13928;DHT22;7036;50.834;4.718;2023-03-03T13:35:55;19.80;39.40
13928;DHT22;7036;50.834;4.718;2023-03-03T13:38:31;19.80;39.50
13928;DHT22;7036;50.834;4.718;2023-03-03T13:41:04;19.80;39.40
13928;DHT22;7036;50.834;4.718;2023-03-03T13:43:45;19.80;39.40
13928;DHT22;7036;50.834;4.718;2023-03-03T13:46:20;19.90;39.40
13928;DHT22;7036;50.834;4.718;2023-03-03T13:49:06;19.90;39.30
13928;DHT22;7036;50.834;4.718;2023-03-03T13:52:06;19.90;39.30
13928;DHT22;7036;50.834;4.718;2023-03-03T13:57:43;19.90;39.40
13928;DHT22;7036;50.834;4.718;2023-03-03T14:00:09;19.90;39.30
13928;DHT22;7036;50.834;4.718;2023-03-03T14:05:40;20.00;39.40
13928;DHT22;7036;50.834;4.718;2023-03-03T14:11:06;20.00;39.30
13928;DHT22;7036;50.834;4.718;2023-03-03T14:13:36;20.00;39.30
13928;DHT22;7036;50.834;4.718;2023-03-03T14:16:04;20.00;39.20
13928;DHT22;7036;50.834;4.718;2023-03-03T14:18:45;20.10;39.40
13928;DHT22;7036;50.834;4.718;2023-03-03T14:21:06;20.10;39.40
13928;DHT22;7036;50.834;4.718;2023-03-03T14:26:10;20.10;39.40
13928;DHT22;7036;50.834;4.718;2023-03-03T14:28:38;20.10;39.40
13928;DHT22;7036;50.834;4.718;2023-03-03T14:31:29;20.10;39.60
13928;DHT22;7036;50.834;4.718;2023-03-03T14:33:58;20.10;39.60
13928;DHT22;7036;50.834;4.718;2023-03-03T14:36:28;20.10;39.50
13928;DHT22;7036;50.834;4.718;2023-03-03T14:38:54;20.10;39.70
13928;DHT22;7036;50.834;4.718;2023-03-03T14:41:21;20.10;39.60
13928;DHT22;7036;50.834;4.718;2023-03-03T14:43:55;20.10;39.70
13928;DHT22;7036;50.834;4.718;2023-03-03T14:49:01;20.00;39.70
13928;DHT22;7036;50.834;4.718;2023-03-03T14:53:56;20.00;39.70
13928;DHT22;7036;50.834;4.718;2023-03-03T14:56:24;20.00;39.70
13928;DHT22;7036;50.834;4.718;2023-03-03T14:58:51;20.00;39.70
13928;DHT22;7036;50.834;4.718;2023-03-03T15:01:22;20.00;40.00
13928;DHT22;7036;50.834;4.718;2023-03-03T15:04:09;20.00;39.80
13928;DHT22;7036;50.834;4.718;2023-03-03T15:09:33;20.00;39.80
13928;DHT22;7036;50.834;4.718;2023-03-03T15:12:02;20.10;40.00
13928;DHT22;7036;50.834;4.718;2023-03-03T15:14:36;20.10;40.00
13928;DHT22;7036;50.834;4.718;2023-03-03T15:17:24;20.10;40.00
13928;DHT22;7036;50.834;4.718;2023-03-03T15:25:08;20.10;40.00
13928;DHT22;7036;50.834;4.718;2023-03-03T15:27:44;20.10;39.90
13928;DHT22;7036;50.834;4.718;2023-03-03T15:30:15;20.20;39.90
13928;DHT22;7036;50.834;4.718;2023-03-03T15:32:46;20.20;39.90
13928;DHT22;7036;50.834;4.718;2023-03-03T15:35:42;20.30;39.90
13928;DHT22;7036;50.834;4.718;2023-03-03T15:38:16;20.30;39.80
13928;DHT22;7036;50.834;4.718;2023-03-03T15:41:06;20.40;40.00
13928;DHT22;7036;50.834;4.718;2023-03-03T15:43:36;20.40;39.90
13928;DHT22;7036;50.834;4.718;2023-03-03T15:46:24;20.40;39.80
13928;DHT22;7036;50.834;4.718;2023-03-03T15:49:15;20.40;39.90
13928;DHT22;7036;50.834;4.718;2023-03-03T15:51:46;20.40;39.80
13928;DHT22;7036;50.834;4.718;2023-03-03T15:59:16;20.40;39.70
13928;DHT22;7036;50.834;4.718;2023-03-03T16:04:19;20.40;39.70
13928;DHT22;7036;50.834;4.718;2023-03-03T16:07:04;20.40;39.70
13928;DHT22;7036;50.834;4.718;2023-03-03T16:25:02;20.10;39.20
13928;DHT22;7036;50.834;4.718;2023-03-03T16:30:38;20.10;39.20
13928;DHT22;7036;50.834;4.718;2023-03-03T16:36:08;20.30;39.50
13928;DHT22;7036;50.834;4.718;2023-03-03T16:38:37;20.30;39.30
13928;DHT22;7036;50.834;4.718;2023-03-03T16:41:22;20.30;39.40
13928;DHT22;7036;50.834;4.718;2023-03-03T16:43:57;20.30;39.50
13928;DHT22;7036;50.834;4.718;2023-03-03T16:46:57;20.40;39.60
13928;DHT22;7036;50.834;4.718;2023-03-03T16:51:44;20.30;39.70
13928;DHT22;7036;50.834;4.718;2023-03-03T16:54:17;20.40;39.90
13928;DHT22;7036;50.834;4.718;2023-03-03T16:56:59;20.30;40.60
13928;DHT22;7036;50.834;4.718;2023-03-03T16:59:41;20.30;39.80
13928;DHT22;7036;50.834;4.718;2023-03-03T17:02:22;20.30;40.10
13928;DHT22;7036;50.834;4.718;2023-03-03T17:04:53;20.30;39.90
13928;DHT22;7036;50.834;4.718;2023-03-03T17:07:36;20.30;40.10
13928;DHT22;7036;50.834;4.718;2023-03-03T17:13:02;20.20;39.90
13928;DHT22;7036;50.834;4.718;2023-03-03T17:21:24;20.20;39.90
13928;DHT22;7036;50.834;4.718;2023-03-03T17:23:58;20.20;39.90
13928;DHT22;7036;50.834;4.718;2023-03-03T17:34:29;20.10;39.80
13928;DHT22;7036;50.834;4.718;2023-03-03T17:39:59;20.10;39.70
13928;DHT22;7036;50.834;4.718;2023-03-03T17:42:48;20.10;39.80
13928;DHT22;7036;50.834;4.718;2023-03-03T17:45:17;20.10;40.70
13928;DHT22;7036;50.834;4.718;2023-03-03T17:50:58;20.00;40.00
13928;DHT22;7036;50.834;4.718;2023-03-03T17:58:30;20.00;40.00
13928;DHT22;7036;50.834;4.718;2023-03-03T18:01:16;20.00;40.00
13928;DHT22;7036;50.834;4.718;2023-03-03T18:06:50;20.00;40.00
13928;DHT22;7036;50.834;4.718;2023-03-03T18:12:02;20.10;40.30
13928;DHT22;7036;50.834;4.718;2023-03-03T18:14:35;20.10;40.20
13928;DHT22;7036;50.834;4.718;2023-03-03T18:17:19;20.10;40.10
13928;DHT22;7036;50.834;4.718;2023-03-03T18:19:50;20.10;40.10
13928;DHT22;7036;50.834;4.718;2023-03-03T18:22:23;20.20;40.10
13928;DHT22;7036;50.834;4.718;2023-03-03T18:33:24;20.20;39.90
13928;DHT22;7036;50.834;4.718;2023-03-03T18:40:52;20.20;39.80
13928;DHT22;7036;50.834;4.718;2023-03-03T18:48:56;20.20;40.00
13928;DHT22;7036;50.834;4.718;2023-03-03T18:56:44;20.20;39.90
13928;DHT22;7036;50.834;4.718;2023-03-03T18:59:10;20.20;39.80
13928;DHT22;7036;50.834;4.718;2023-03-03T19:01:42;20.20;40.30
13928;DHT22;7036;50.834;4.718;2023-03-03T19:04:15;20.20;40.20
13928;DHT22;7036;50.834;4.718;2023-03-03T19:09:05;20.30;40.10
13928;DHT22;7036;50.834;4.718;2023-03-03T19:11:36;20.20;40.80
13928;DHT22;7036;50.834;4.718;2023-03-03T19:16:52;20.20;39.80
13928;DHT22;7036;50.834;4.718;2023-03-03T19:19:20;20.20;39.80
13928;DHT22;7036;50.834;4.718;2023-03-03T19:21:49;20.20;40.00
13928;DHT22;7036;50.834;4.718;2023-03-03T19:27:12;20.20;39.80
13928;DHT22;7036;50.834;4.718;2023-03-03T19:40:46;20.10;40.00
13928;DHT22;7036;50.834;4.718;2023-03-03T19:48:58;20.00;39.90
13928;DHT22;7036;50.834;4.718;2023-03-03T19:51:34;20.00;39.80
13928;DHT22;7036;50.834;4.718;2023-03-03T19:56:55;20.00;39.90
13928;DHT22;7036;50.834;4.718;2023-03-03T19:59:47;20.00;40.00
13928;DHT22;7036;50.834;4.718;2023-03-03T20:04:50;19.90;39.90
13928;DHT22;7036;50.834;4.718;2023-03-03T20:07:33;19.90;40.10
13928;DHT22;7036;50.834;4.718;2023-03-03T20:13:01;19.90;40.00
13928;DHT22;7036;50.834;4.718;2023-03-03T20:20:46;19.90;40.00
13928;DHT22;7036;50.834;4.718;2023-03-03T20:26:13;19.90;40.10
13928;DHT22;7036;50.834;4.718;2023-03-03T20:29:11;19.90;40.00
13928;DHT22;7036;50.834;4.718;2023-03-03T20:37:16;19.80;40.10
13928;DHT22;7036;50.834;4.718;2023-03-03T20:39:44;19.80;40.60
13928;DHT22;7036;50.834;4.718;2023-03-03T20:42:23;19.80;40.10
13928;DHT22;7036;50.834;4.718;2023-03-03T20:47:37;19.80;40.10
13928;DHT22;7036;50.834;4.718;2023-03-03T20:55:33;19.70;40.20
13928;DHT22;7036;50.834;4.718;2023-03-03T20:58:05;19.70;40.20
13928;DHT22;7036;50.834;4.718;2023-03-03T21:00:42;19.70;40.20
13928;DHT22;7036;50.834;4.718;2023-03-03T21:06:04;19.60;40.80
13928;DHT22;7036;50.834;4.718;2023-03-03T21:08:44;19.60;40.10
13928;DHT22;7036;50.834;4.718;2023-03-03T21:11:09;19.60;40.10